sensor_id;sensor_type;location;lat;lon;timestamp;P1;durP1;ratioP1;P2;durP2;ratioP2
67981;SDS011;64109;52.148;4.466;2023-04-01T00:00:50;10.38;;;2.05;;
67981;SDS011;64109;52.148;4.466;2023-04-01T00:03:17;9.40;;;2.05;;
67981;SDS011;64109;52.148;4.466;2023-04-01T00:05:43;9.05;;;2.15;;
67981;SDS011;64109;52.148;4.466;2023-04-01T00:08:09;9.63;;;1.85;;
67981;SDS011;64109;52.148;4.466;2023-04-01T00:10:35;8.73;;;2.17;;
67981;SDS011;64109;52.148;4.466;2023-04-01T00:13:01;6.45;;;1.50;;
67981;SDS011;64109;52.148;4.466;2023-04-01T00:15:27;9.65;;;2.60;;
67981;SDS011;64109;52.148;4.466;2023-04-01T00:17:53;10.40;;;2.33;;
67981;SDS011;64109;52.148;4.466;2023-04-01T00:20:19;12.85;;;2.17;;
67981;SDS011;64109;52.148;4.466;2023-04-01T00:22:45;7.35;;;2.22;;
67981;SDS011;64109;52.148;4.466;2023-04-01T00:25:11;7.15;;;1.85;;
67981;SDS011;64109;52.148;4.466;2023-04-01T00:27:37;8.98;;;1.98;;
67981;SDS011;64109;52.148;4.466;2023-04-01T00:30:03;9.85;;;2.33;;
67981;SDS011;64109;52.148;4.466;2023-04-01T00:32:29;8.55;;;1.90;;
67981;SDS011;64109;52.148;4.466;2023-04-01T00:34:56;10.95;;;2.75;;
67981;SDS011;64109;52.148;4.466;2023-04-01T00:37:24;11.32;;;1.70;;
67981;SDS011;64109;52.148;4.466;2023-04-01T00:39:50;9.52;;;2.38;;
67981;SDS011;64109;52.148;4.466;2023-04-01T00:42:16;10.75;;;2.25;;
67981;SDS011;64109;52.148;4.466;2023-04-01T00:44:44;8.57;;;2.10;;
67981;SDS011;64109;52.148;4.466;2023-04-01T00:47:10;15.95;;;2.00;;
67981;SDS011;64109;52.148;4.466;2023-04-01T00:49:37;5.95;;;1.67;;
67981;SDS011;64109;52.148;4.466;2023-04-01T00:52:05;6.63;;;1.90;;
67981;SDS011;64109;52.148;4.466;2023-04-01T00:54:32;5.47;;;1.50;;
67981;SDS011;64109;52.148;4.466;2023-04-01T00:57:01;8.85;;;1.83;;
67981;SDS011;64109;52.148;4.466;2023-04-01T00:59:29;12.60;;;2.72;;
67981;SDS011;64109;52.148;4.466;2023-04-01T01:01:55;10.35;;;2.78;;
67981;SDS011;64109;52.148;4.466;2023-04-01T01:04:26;8.05;;;2.10;;
67981;SDS011;64109;52.148;4.466;2023-04-01T01:06:57;6.93;;;1.98;;
67981;SDS011;64109;52.148;4.466;2023-04-01T01:11:54;7.10;;;1.85;;
67981;SDS011;64109;52.148;4.466;2023-04-01T01:14:45;9.02;;;2.03;;
67981;SDS011;64109;52.148;4.466;2023-04-01T01:27:20;7.07;;;2.33;;
67981;SDS011;64109;52.148;4.466;2023-04-01T01:37:42;5.07;;;1.75;;
67981;SDS011;64109;52.148;4.466;2023-04-01T01:40:10;8.02;;;1.77;;
67981;SDS011;64109;52.148;4.466;2023-04-01T01:42:38;4.82;;;1.20;;
67981;SDS011;64109;52.148;4.466;2023-04-01T01:45:05;6.18;;;1.70;;
67981;SDS011;64109;52.148;4.466;2023-04-01T01:47:32;6.78;;;1.80;;
67981;SDS011;64109;52.148;4.466;2023-04-01T01:49:59;5.22;;;1.63;;
67981;SDS011;64109;52.148;4.466;2023-04-01T01:52:26;4.30;;;1.40;;
67981;SDS011;64109;52.148;4.466;2023-04-01T01:54:54;6.53;;;1.40;;
67981;SDS011;64109;52.148;4.466;2023-04-01T01:57:24;6.75;;;1.35;;
67981;SDS011;64109;52.148;4.466;2023-04-01T01:59:52;4.97;;;1.50;;
67981;SDS011;64109;52.148;4.466;2023-04-01T02:02:20;5.10;;;1.27;;
67981;SDS011;64109;52.148;4.466;2023-04-01T02:04:47;7.03;;;1.50;;
67981;SDS011;64109;52.148;4.466;2023-04-01T02:07:15;4.75;;;1.52;;
67981;SDS011;64109;52.148;4.466;2023-04-01T02:09:42;4.20;;;1.65;;
67981;SDS011;64109;52.148;4.466;2023-04-01T02:12:09;7.13;;;1.70;;
67981;SDS011;64109;52.148;4.466;2023-04-01T02:14:39;5.25;;;1.45;;
67981;SDS011;64109;52.148;4.466;2023-04-01T02:17:07;5.72;;;1.80;;
67981;SDS011;64109;52.148;4.466;2023-04-01T02:19:36;6.63;;;1.67;;
67981;SDS011;64109;52.148;4.466;2023-04-01T02:22:04;5.07;;;1.38;;
67981;SDS011;64109;52.148;4.466;2023-04-01T02:24:31;4.82;;;1.70;;
67981;SDS011;64109;52.148;4.466;2023-04-01T02:26:59;4.75;;;1.55;;
67981;SDS011;64109;52.148;4.466;2023-04-01T02:29:25;4.15;;;1.65;;
67981;SDS011;64109;52.148;4.466;2023-04-01T02:31:51;4.00;;;1.77;;
67981;SDS011;64109;52.148;4.466;2023-04-01T02:34:18;5.47;;;1.73;;
67981;SDS011;64109;52.148;4.466;2023-04-01T02:36:44;6.28;;;1.48;;
67981;SDS011;64109;52.148;4.466;2023-04-01T02:39:11;6.50;;;1.80;;
67981;SDS011;64109;52.148;4.466;2023-04-01T02:41:43;8.70;;;1.65;;
67981;SDS011;64109;52.148;4.466;2023-04-01T02:44:10;3.55;;;1.75;;
67981;SDS011;64109;52.148;4.466;2023-04-01T02:46:36;5.25;;;2.10;;
67981;SDS011;64109;52.148;4.466;2023-04-01T02:49:03;4.57;;;1.55;;
67981;SDS011;64109;52.148;4.466;2023-04-01T02:51:29;4.55;;;1.50;;
67981;SDS011;64109;52.148;4.466;2023-04-01T02:53:55;7.57;;;2.25;;
67981;SDS011;64109;52.148;4.466;2023-04-01T02:56:21;5.13;;;1.70;;
67981;SDS011;64109;52.148;4.466;2023-04-01T02:58:47;6.47;;;1.10;;
67981;SDS011;64109;52.148;4.466;2023-04-01T03:01:13;4.28;;;1.90;;
67981;SDS011;64109;52.148;4.466;2023-04-01T03:03:39;4.30;;;1.40;;
67981;SDS011;64109;52.148;4.466;2023-04-01T03:06:06;5.75;;;1.80;;
67981;SDS011;64109;52.148;4.466;2023-04-01T03:08:32;4.45;;;1.40;;
67981;SDS011;64109;52.148;4.466;2023-04-01T03:10:58;4.90;;;1.75;;
67981;SDS011;64109;52.148;4.466;2023-04-01T03:13:24;3.75;;;1.40;;
67981;SDS011;64109;52.148;4.466;2023-04-01T03:15:50;6.78;;;2.00;;
67981;SDS011;64109;52.148;4.466;2023-04-01T03:18:16;2.80;;;1.33;;
67981;SDS011;64109;52.148;4.466;2023-04-01T03:20:42;6.82;;;1.58;;
67981;SDS011;64109;52.148;4.466;2023-04-01T03:23:08;5.40;;;1.98;;
67981;SDS011;64109;52.148;4.466;2023-04-01T03:25:34;2.58;;;1.10;;
67981;SDS011;64109;52.148;4.466;2023-04-01T03:28:00;3.05;;;1.30;;
67981;SDS011;64109;52.148;4.466;2023-04-01T03:30:27;3.83;;;1.83;;
67981;SDS011;64109;52.148;4.466;2023-04-01T03:32:54;4.68;;;1.55;;
67981;SDS011;64109;52.148;4.466;2023-04-01T03:35:20;4.63;;;1.20;;
67981;SDS011;64109;52.148;4.466;2023-04-01T03:37:46;3.95;;;1.55;;
67981;SDS011;64109;52.148;4.466;2023-04-01T03:40:12;4.55;;;1.30;;
67981;SDS011;64109;52.148;4.466;2023-04-01T03:42:39;3.53;;;1.10;;
67981;SDS011;64109;52.148;4.466;2023-04-01T03:45:05;3.30;;;1.15;;
67981;SDS011;64109;52.148;4.466;2023-04-01T03:47:31;4.25;;;1.10;;
67981;SDS011;64109;52.148;4.466;2023-04-01T03:49:57;3.75;;;1.25;;
67981;SDS011;64109;52.148;4.466;2023-04-01T03:52:23;3.10;;;1.52;;
67981;SDS011;64109;52.148;4.466;2023-04-01T03:54:49;4.47;;;1.70;;
67981;SDS011;64109;52.148;4.466;2023-04-01T03:57:15;3.67;;;1.30;;
67981;SDS011;64109;52.148;4.466;2023-04-01T03:59:41;5.82;;;1.45;;
67981;SDS011;64109;52.148;4.466;2023-04-01T04:02:07;3.10;;;1.13;;
67981;SDS011;64109;52.148;4.466;2023-04-01T04:04:33;4.50;;;1.63;;
67981;SDS011;64109;52.148;4.466;2023-04-01T04:06:59;3.58;;;1.40;;
67981;SDS011;64109;52.148;4.466;2023-04-01T04:09:25;2.85;;;1.40;;
67981;SDS011;64109;52.148;4.466;2023-04-01T04:11:51;3.13;;;1.40;;
67981;SDS011;64109;52.148;4.466;2023-04-01T04:14:17;4.18;;;1.23;;
67981;SDS011;64109;52.148;4.466;2023-04-01T04:16:43;2.85;;;1.25;;
67981;SDS011;64109;52.148;4.466;2023-04-01T04:19:09;3.30;;;1.52;;
67981;SDS011;64109;52.148;4.466;2023-04-01T04:21:35;2.97;;;1.45;;
67981;SDS011;64109;52.148;4.466;2023-04-01T04:24:01;5.75;;;1.50;;
67981;SDS011;64109;52.148;4.466;2023-04-01T04:26:27;5.68;;;1.50;;
67981;SDS011;64109;52.148;4.466;2023-04-01T04:28:54;3.85;;;1.20;;
67981;SDS011;64109;52.148;4.466;2023-04-01T04:31:24;2.85;;;1.35;;
67981;SDS011;64109;52.148;4.466;2023-04-01T04:33:50;3.47;;;1.40;;
67981;SDS011;64109;52.148;4.466;2023-04-01T04:36:16;3.88;;;1.58;;
67981;SDS011;64109;52.148;4.466;2023-04-01T04:38:42;3.60;;;1.13;;
67981;SDS011;64109;52.148;4.466;2023-04-01T04:41:12;3.83;;;1.20;;
67981;SDS011;64109;52.148;4.466;2023-04-01T04:43:39;4.50;;;1.10;;
67981;SDS011;64109;52.148;4.466;2023-04-01T04:46:09;3.38;;;1.20;;
67981;SDS011;64109;52.148;4.466;2023-04-01T04:48:36;2.55;;;1.10;;
67981;SDS011;64109;52.148;4.466;2023-04-01T04:51:02;3.15;;;1.20;;
67981;SDS011;64109;52.148;4.466;2023-04-01T04:53:28;2.42;;;1.00;;
67981;SDS011;64109;52.148;4.466;2023-04-01T04:55:54;3.50;;;1.40;;
67981;SDS011;64109;52.148;4.466;2023-04-01T04:58:20;4.22;;;1.42;;
67981;SDS011;64109;52.148;4.466;2023-04-01T05:00:47;2.67;;;1.10;;
67981;SDS011;64109;52.148;4.466;2023-04-01T05:03:13;3.58;;;1.05;;
67981;SDS011;64109;52.148;4.466;2023-04-01T05:05:39;3.53;;;1.13;;
67981;SDS011;64109;52.148;4.466;2023-04-01T05:08:05;6.38;;;1.83;;
67981;SDS011;64109;52.148;4.466;2023-04-01T05:10:31;3.70;;;1.10;;
67981;SDS011;64109;52.148;4.466;2023-04-01T05:12:58;4.50;;;1.48;;
67981;SDS011;64109;52.148;4.466;2023-04-01T05:15:24;2.63;;;1.00;;
67981;SDS011;64109;52.148;4.466;2023-04-01T05:17:50;2.47;;;1.10;;
67981;SDS011;64109;52.148;4.466;2023-04-01T05:20:16;3.33;;;1.55;;
67981;SDS011;64109;52.148;4.466;2023-04-01T05:22:42;7.07;;;1.80;;
67981;SDS011;64109;52.148;4.466;2023-04-01T05:25:08;5.03;;;1.70;;
67981;SDS011;64109;52.148;4.466;2023-04-01T05:27:34;6.90;;;1.80;;
67981;SDS011;64109;52.148;4.466;2023-04-01T05:30:00;4.90;;;1.80;;
67981;SDS011;64109;52.148;4.466;2023-04-01T05:32:27;7.28;;;2.20;;
67981;SDS011;64109;52.148;4.466;2023-04-01T05:34:53;7.18;;;2.38;;
67981;SDS011;64109;52.148;4.466;2023-04-01T05:37:19;5.05;;;1.77;;
67981;SDS011;64109;52.148;4.466;2023-04-01T05:39:45;7.32;;;2.30;;
67981;SDS011;64109;52.148;4.466;2023-04-01T05:42:11;12.77;;;4.28;;
67981;SDS011;64109;52.148;4.466;2023-04-01T05:44:37;6.72;;;1.92;;
67981;SDS011;64109;52.148;4.466;2023-04-01T05:47:03;3.95;;;1.85;;
67981;SDS011;64109;52.148;4.466;2023-04-01T05:49:30;3.97;;;1.73;;
67981;SDS011;64109;52.148;4.466;2023-04-01T05:51:56;4.82;;;1.80;;
67981;SDS011;64109;52.148;4.466;2023-04-01T05:54:22;4.45;;;1.92;;
67981;SDS011;64109;52.148;4.466;2023-04-01T05:56:48;4.63;;;2.35;;
67981;SDS011;64109;52.148;4.466;2023-04-01T05:59:14;7.18;;;1.83;;
67981;SDS011;64109;52.148;4.466;2023-04-01T06:01:40;6.60;;;2.00;;
67981;SDS011;64109;52.148;4.466;2023-04-01T06:04:06;4.68;;;1.60;;
67981;SDS011;64109;52.148;4.466;2023-04-01T06:06:37;3.58;;;1.50;;
67981;SDS011;64109;52.148;4.466;2023-04-01T06:09:10;5.00;;;1.25;;
67981;SDS011;64109;52.148;4.466;2023-04-01T06:14:32;5.68;;;1.42;;
67981;SDS011;64109;52.148;4.466;2023-04-01T06:17:16;6.13;;;1.40;;
67981;SDS011;64109;52.148;4.466;2023-04-01T06:19:51;8.13;;;1.40;;
67981;SDS011;64109;52.148;4.466;2023-04-01T06:25:25;3.35;;;1.55;;
67981;SDS011;64109;52.148;4.466;2023-04-01T06:30:43;3.00;;;1.45;;
67981;SDS011;64109;52.148;4.466;2023-04-01T06:35:55;3.85;;;1.15;;
67981;SDS011;64109;52.148;4.466;2023-04-01T06:40:56;5.22;;;1.30;;
67981;SDS011;64109;52.148;4.466;2023-04-01T06:51:46;3.30;;;1.33;;
67981;SDS011;64109;52.148;4.466;2023-04-01T06:54:17;4.05;;;1.48;;
67981;SDS011;64109;52.148;4.466;2023-04-01T06:56:45;4.50;;;1.85;;
67981;SDS011;64109;52.148;4.466;2023-04-01T06:59:15;7.30;;;1.33;;
67981;SDS011;64109;52.148;4.466;2023-04-01T07:01:45;4.22;;;1.58;;
67981;SDS011;64109;52.148;4.466;2023-04-01T07:09:25;5.20;;;1.50;;
67981;SDS011;64109;52.148;4.466;2023-04-01T07:11:53;2.97;;;1.33;;
67981;SDS011;64109;52.148;4.466;2023-04-01T07:14:32;5.00;;;1.50;;
67981;SDS011;64109;52.148;4.466;2023-04-01T07:17:10;3.10;;;1.52;;
67981;SDS011;64109;52.148;4.466;2023-04-01T07:24:42;4.35;;;1.50;;
67981;SDS011;64109;52.148;4.466;2023-04-01T07:27:11;3.90;;;1.42;;
67981;SDS011;64109;52.148;4.466;2023-04-01T07:29:37;3.90;;;1.45;;
67981;SDS011;64109;52.148;4.466;2023-04-01T07:35:03;2.70;;;1.48;;
67981;SDS011;64109;52.148;4.466;2023-04-01T07:47:39;4.50;;;1.38;;
67981;SDS011;64109;52.148;4.466;2023-04-01T07:50:26;5.03;;;1.23;;
67981;SDS011;64109;52.148;4.466;2023-04-01T07:55:23;3.58;;;1.13;;
67981;SDS011;64109;52.148;4.466;2023-04-01T08:00:42;6.82;;;1.70;;
67981;SDS011;64109;52.148;4.466;2023-04-01T08:05:57;13.25;;;2.53;;
67981;SDS011;64109;52.148;4.466;2023-04-01T08:20:53;4.25;;;1.52;;
67981;SDS011;64109;52.148;4.466;2023-04-01T08:25:55;4.50;;;1.42;;
67981;SDS011;64109;52.148;4.466;2023-04-01T08:28:24;4.22;;;1.65;;
67981;SDS011;64109;52.148;4.466;2023-04-01T08:35:55;7.88;;;1.33;;
67981;SDS011;64109;52.148;4.466;2023-04-01T08:38:24;6.05;;;1.73;;
67981;SDS011;64109;52.148;4.466;2023-04-01T08:48:59;3.22;;;1.30;;
67981;SDS011;64109;52.148;4.466;2023-04-01T08:57:01;3.45;;;1.13;;
67981;SDS011;64109;52.148;4.466;2023-04-01T09:04:48;4.20;;;1.65;;
67981;SDS011;64109;52.148;4.466;2023-04-01T09:07:29;5.25;;;1.67;;
67981;SDS011;64109;52.148;4.466;2023-04-01T09:20:14;4.35;;;1.45;;
67981;SDS011;64109;52.148;4.466;2023-04-01T09:25:38;5.88;;;1.55;;
67981;SDS011;64109;52.148;4.466;2023-04-01T09:31:11;3.50;;;1.52;;
67981;SDS011;64109;52.148;4.466;2023-04-01T09:36:12;2.58;;;1.23;;
67981;SDS011;64109;52.148;4.466;2023-04-01T09:38:55;3.65;;;1.05;;
67981;SDS011;64109;52.148;4.466;2023-04-01T09:41:41;3.83;;;1.35;;
67981;SDS011;64109;52.148;4.466;2023-04-01T09:44:16;3.38;;;1.23;;
67981;SDS011;64109;52.148;4.466;2023-04-01T09:52:10;3.00;;;1.55;;
67981;SDS011;64109;52.148;4.466;2023-04-01T09:54:45;6.70;;;1.77;;
67981;SDS011;64109;52.148;4.466;2023-04-01T09:59:45;3.15;;;1.50;;
67981;SDS011;64109;52.148;4.466;2023-04-01T10:17:48;5.50;;;1.38;;
67981;SDS011;64109;52.148;4.466;2023-04-01T10:33:43;5.25;;;2.20;;
67981;SDS011;64109;52.148;4.466;2023-04-01T10:35:58;4.00;;;1.92;;
67981;SDS011;64109;52.148;4.466;2023-04-01T10:46:21;4.68;;;2.13;;
67981;SDS011;64109;52.148;4.466;2023-04-01T10:49:07;3.83;;;1.90;;
67981;SDS011;64109;52.148;4.466;2023-04-01T11:00:10;8.57;;;2.50;;
67981;SDS011;64109;52.148;4.466;2023-04-01T11:03:01;4.60;;;1.73;;
67981;SDS011;64109;52.148;4.466;2023-04-01T11:05:50;4.75;;;1.65;;
67981;SDS011;64109;52.148;4.466;2023-04-01T11:55:46;4.22;;;1.83;;
67981;SDS011;64109;52.148;4.466;2023-04-01T12:03:30;4.88;;;1.83;;
67981;SDS011;64109;52.148;4.466;2023-04-01T12:06:05;3.42;;;1.65;;
67981;SDS011;64109;52.148;4.466;2023-04-01T12:11:03;3.20;;;1.67;;
67981;SDS011;64109;52.148;4.466;2023-04-01T12:13:42;6.28;;;1.92;;
67981;SDS011;64109;52.148;4.466;2023-04-01T12:18:46;4.38;;;2.13;;
67981;SDS011;64109;52.148;4.466;2023-04-01T12:21:23;3.80;;;1.95;;
67981;SDS011;64109;52.148;4.466;2023-04-01T12:24:25;5.85;;;2.15;;
67981;SDS011;64109;52.148;4.466;2023-04-01T12:27:11;5.45;;;1.73;;
67981;SDS011;64109;52.148;4.466;2023-04-01T12:29:55;3.85;;;1.80;;
67981;SDS011;64109;52.148;4.466;2023-04-01T12:39:58;3.13;;;1.60;;
67981;SDS011;64109;52.148;4.466;2023-04-01T12:47:50;3.42;;;1.63;;
67981;SDS011;64109;52.148;4.466;2023-04-01T13:00:48;4.45;;;1.55;;
67981;SDS011;64109;52.148;4.466;2023-04-01T13:26:29;3.67;;;1.65;;
67981;SDS011;64109;52.148;4.466;2023-04-01T13:44:31;4.35;;;1.42;;
67981;SDS011;64109;52.148;4.466;2023-04-01T13:47:08;5.00;;;1.77;;
67981;SDS011;64109;52.148;4.466;2023-04-01T13:52:08;5.20;;;1.40;;
67981;SDS011;64109;52.148;4.466;2023-04-01T14:00:02;3.90;;;1.52;;
67981;SDS011;64109;52.148;4.466;2023-04-01T14:08:04;3.42;;;1.50;;
67981;SDS011;64109;52.148;4.466;2023-04-01T14:36:43;3.30;;;1.42;;
67981;SDS011;64109;52.148;4.466;2023-04-01T14:42:03;6.25;;;1.65;;
67981;SDS011;64109;52.148;4.466;2023-04-01T14:49:52;4.43;;;1.45;;
67981;SDS011;64109;52.148;4.466;2023-04-01T14:54:48;5.55;;;1.83;;
67981;SDS011;64109;52.148;4.466;2023-04-01T14:57:28;4.20;;;1.50;;
67981;SDS011;64109;52.148;4.466;2023-04-01T15:13:05;3.67;;;1.60;;
67981;SDS011;64109;52.148;4.466;2023-04-01T15:31:27;4.13;;;1.52;;
67981;SDS011;64109;52.148;4.466;2023-04-01T15:38:55;5.13;;;1.90;;
67981;SDS011;64109;52.148;4.466;2023-04-01T15:41:33;4.32;;;1.33;;
67981;SDS011;64109;52.148;4.466;2023-04-01T15:44:01;3.45;;;1.67;;
67981;SDS011;64109;52.148;4.466;2023-04-01T15:46:44;2.95;;;1.30;;
67981;SDS011;64109;52.148;4.466;2023-04-01T15:54:21;6.22;;;1.50;;
67981;SDS011;64109;52.148;4.466;2023-04-01T16:07:30;3.67;;;1.65;;
67981;SDS011;64109;52.148;4.466;2023-04-01T16:09:52;3.40;;;1.40;;
67981;SDS011;64109;52.148;4.466;2023-04-01T16:23:10;4.18;;;1.23;;
67981;SDS011;64109;52.148;4.466;2023-04-01T16:27:49;3.58;;;1.27;;
67981;SDS011;64109;52.148;4.466;2023-04-01T16:30:25;5.97;;;2.13;;
67981;SDS011;64109;52.148;4.466;2023-04-01T16:38:05;10.02;;;3.17;;
67981;SDS011;64109;52.148;4.466;2023-04-01T16:40:53;16.60;;;5.03;;
67981;SDS011;64109;52.148;4.466;2023-04-01T16:43:26;21.05;;;7.10;;
67981;SDS011;64109;52.148;4.466;2023-04-01T16:59:44;78.95;;;29.10;;
67981;SDS011;64109;52.148;4.466;2023-04-01T17:02:16;93.05;;;35.40;;
67981;SDS011;64109;52.148;4.466;2023-04-01T17:04:43;98.50;;;41.42;;
67981;SDS011;64109;52.148;4.466;2023-04-01T17:09:55;113.68;;;50.72;;
67981;SDS011;64109;52.148;4.466;2023-04-01T17:17:25;140.88;;;62.88;;
67981;SDS011;64109;52.148;4.466;2023-04-01T17:32:19;132.98;;;62.22;;
67981;SDS011;64109;52.148;4.466;2023-04-01T17:35:02;131.23;;;61.95;;
67981;SDS011;64109;52.148;4.466;2023-04-01T17:37:38;128.63;;;61.70;;
67981;SDS011;64109;52.148;4.466;2023-04-01T17:42:46;127.13;;;61.63;;
67981;SDS011;64109;52.148;4.466;2023-04-01T17:45:28;128.43;;;59.42;;
67981;SDS011;64109;52.148;4.466;2023-04-01T17:47:59;124.20;;;58.33;;
67981;SDS011;64109;52.148;4.466;2023-04-01T17:50:34;125.45;;;58.58;;
67981;SDS011;64109;52.148;4.466;2023-04-01T17:55:48;125.38;;;56.60;;
67981;SDS011;64109;52.148;4.466;2023-04-01T18:10:56;107.85;;;49.03;;
67981;SDS011;64109;52.148;4.466;2023-04-01T18:13:34;103.57;;;47.92;;
67981;SDS011;64109;52.148;4.466;2023-04-01T18:27:07;87.05;;;37.63;;
67981;SDS011;64109;52.148;4.466;2023-04-01T18:29:40;83.82;;;35.90;;
67981;SDS011;64109;52.148;4.466;2023-04-01T18:32:08;68.13;;;30.20;;
67981;SDS011;64109;52.148;4.466;2023-04-01T18:37:27;71.32;;;30.35;;
67981;SDS011;64109;52.148;4.466;2023-04-01T18:42:30;75.03;;;30.83;;
67981;SDS011;64109;52.148;4.466;2023-04-01T18:45:46;65.57;;;27.30;;
67981;SDS011;64109;52.148;4.466;2023-04-01T18:55:57;59.47;;;25.08;;
67981;SDS011;64109;52.148;4.466;2023-04-01T19:01:18;52.63;;;22.13;;
67981;SDS011;64109;52.148;4.466;2023-04-01T19:08:56;43.25;;;19.63;;
67981;SDS011;64109;52.148;4.466;2023-04-01T19:14:30;55.15;;;23.23;;
67981;SDS011;64109;52.148;4.466;2023-04-01T19:17:07;47.38;;;17.75;;
67981;SDS011;64109;52.148;4.466;2023-04-01T19:19:51;36.60;;;15.80;;
67981;SDS011;64109;52.148;4.466;2023-04-01T19:25:10;29.17;;;13.98;;
67981;SDS011;64109;52.148;4.466;2023-04-01T19:30:25;42.72;;;16.35;;
67981;SDS011;64109;52.148;4.466;2023-04-01T19:35:33;33.42;;;15.05;;
67981;SDS011;64109;52.148;4.466;2023-04-01T19:38:25;32.50;;;15.82;;
67981;SDS011;64109;52.148;4.466;2023-04-01T19:40:50;30.25;;;13.18;;
67981;SDS011;64109;52.148;4.466;2023-04-01T19:51:31;31.17;;;12.88;;
67981;SDS011;64109;52.148;4.466;2023-04-01T19:56:25;33.08;;;12.43;;
67981;SDS011;64109;52.148;4.466;2023-04-01T20:04:47;28.58;;;12.18;;
67981;SDS011;64109;52.148;4.466;2023-04-01T20:07:22;25.60;;;10.45;;
67981;SDS011;64109;52.148;4.466;2023-04-01T20:09:51;32.60;;;12.05;;
67981;SDS011;64109;52.148;4.466;2023-04-01T20:15:00;25.77;;;10.70;;
67981;SDS011;64109;52.148;4.466;2023-04-01T20:28:11;21.13;;;8.98;;
67981;SDS011;64109;52.148;4.466;2023-04-01T20:30:47;22.23;;;8.60;;
67981;SDS011;64109;52.148;4.466;2023-04-01T20:49:14;20.70;;;8.18;;
67981;SDS011;64109;52.148;4.466;2023-04-01T20:51:58;19.73;;;7.93;;
67981;SDS011;64109;52.148;4.466;2023-04-01T21:07:36;16.65;;;6.95;;
67981;SDS011;64109;52.148;4.466;2023-04-01T21:10:29;15.68;;;6.10;;
67981;SDS011;64109;52.148;4.466;2023-04-01T21:15:26;19.45;;;7.93;;
67981;SDS011;64109;52.148;4.466;2023-04-01T21:18:11;14.75;;;6.25;;
67981;SDS011;64109;52.148;4.466;2023-04-01T21:20:46;16.70;;;7.10;;
67981;SDS011;64109;52.148;4.466;2023-04-01T21:25:51;12.40;;;5.47;;
67981;SDS011;64109;52.148;4.466;2023-04-01T21:33:45;15.88;;;5.43;;
67981;SDS011;64109;52.148;4.466;2023-04-01T21:38:48;11.45;;;4.72;;
67981;SDS011;64109;52.148;4.466;2023-04-01T21:41:23;13.98;;;5.13;;
67981;SDS011;64109;52.148;4.466;2023-04-01T21:44:18;12.60;;;5.57;;
67981;SDS011;64109;52.148;4.466;2023-04-01T21:57:08;9.85;;;4.47;;
67981;SDS011;64109;52.148;4.466;2023-04-01T22:07:36;10.07;;;4.20;;
67981;SDS011;64109;52.148;4.466;2023-04-01T22:10:26;12.50;;;4.22;;
67981;SDS011;64109;52.148;4.466;2023-04-01T22:12:56;8.60;;;3.92;;
67981;SDS011;64109;52.148;4.466;2023-04-01T22:18:04;8.95;;;4.45;;
67981;SDS011;64109;52.148;4.466;2023-04-01T22:28:27;7.45;;;4.13;;
67981;SDS011;64109;52.148;4.466;2023-04-01T22:30:56;10.45;;;4.00;;
67981;SDS011;64109;52.148;4.466;2023-04-01T22:33:48;8.88;;;3.35;;
67981;SDS011;64109;52.148;4.466;2023-04-01T22:38:53;8.38;;;3.78;;
67981;SDS011;64109;52.148;4.466;2023-04-01T22:41:35;6.88;;;3.55;;
67981;SDS011;64109;52.148;4.466;2023-04-01T22:44:04;7.07;;;3.50;;
67981;SDS011;64109;52.148;4.466;2023-04-01T22:51:53;7.25;;;3.72;;
67981;SDS011;64109;52.148;4.466;2023-04-01T22:56:54;8.65;;;3.03;;
67981;SDS011;64109;52.148;4.466;2023-04-01T22:59:32;9.00;;;3.70;;
67981;SDS011;64109;52.148;4.466;2023-04-01T23:02:03;7.55;;;3.35;;
67981;SDS011;64109;52.148;4.466;2023-04-01T23:04:32;6.18;;;2.90;;
67981;SDS011;64109;52.148;4.466;2023-04-01T23:07:00;6.75;;;3.30;;
67981;SDS011;64109;52.148;4.466;2023-04-01T23:09:31;7.13;;;3.78;;
67981;SDS011;64109;52.148;4.466;2023-04-01T23:12:03;6.20;;;2.90;;
67981;SDS011;64109;52.148;4.466;2023-04-01T23:14:35;9.30;;;3.42;;
67981;SDS011;64109;52.148;4.466;2023-04-01T23:24:55;7.95;;;2.88;;
67981;SDS011;64109;52.148;4.466;2023-04-01T23:27:31;4.70;;;2.85;;
67981;SDS011;64109;52.148;4.466;2023-04-01T23:30:01;5.32;;;3.05;;
67981;SDS011;64109;52.148;4.466;2023-04-01T23:32:28;6.10;;;2.83;;
67981;SDS011;64109;52.148;4.466;2023-04-01T23:34:55;5.80;;;2.50;;
67981;SDS011;64109;52.148;4.466;2023-04-01T23:37:22;6.70;;;2.72;;
67981;SDS011;64109;52.148;4.466;2023-04-01T23:39:50;6.80;;;3.08;;
67981;SDS011;64109;52.148;4.466;2023-04-01T23:42:26;7.97;;;3.28;;
67981;SDS011;64109;52.148;4.466;2023-04-01T23:44:53;6.03;;;2.67;;
67981;SDS011;64109;52.148;4.466;2023-04-01T23:47:22;5.10;;;2.40;;
67981;SDS011;64109;52.148;4.466;2023-04-01T23:49:58;5.75;;;3.15;;
67981;SDS011;64109;52.148;4.466;2023-04-01T23:52:30;7.30;;;2.65;;
67981;SDS011;64109;52.148;4.466;2023-04-01T23:55:31;6.03;;;2.55;;
